Share

Ayr, ND

NDDOT Buffalo ND 38 MP 10 (MND014) Elev 1437 ft | 47.02 °N, 97.56 °W | Change Station

Current weather conditions updated 50 minutes ago

Clear
Clear
63 °F
Feels Like 63 °F
N
26
Wind Variable Wind from WSW
Gusts 31.0 mph
Sunrise 6:35 AM
Sunset 8:24 PM
Moon Waning Gibbous

Today is forecast to be Much Warmer than yesterday.

Pressure 29.89 in
Visibility 10.0 miles
Clouds Clear
Dew Point 29 °F
Humidity 28%
Rainfall -999.00 in
Snow Depth Not available.
UV 8 out of 16
Pollen 9.40 out of 12
Air Quality Not available.
Flu Activity Sporadic
METAR KBAC 191955Z AUTO 28014G23KT 10SM CLR 17/00 A2989 RMK AO2

More Conditions Fewer Conditions

Pressure 29.89 in
Visibility 10.0 miles
Clouds Clear
Dew Point 29 °F
Humidity 28%
Rainfall -999.00 in
Snow Depth Not available.
UV 8 out of 16
Pollen 9.40 out of 12
Air Quality Not available.
Flu Activity Sporadic
METAR KBAC 191955Z AUTO 28014G23KT 10SM CLR 17/00 A2989 RMK AO2

More Conditions Fewer Conditions

10-Day Weather Forecast

Almanac

Astronomy

Apr. 19, 2014 Rise Set
Actual Time 6:35 AM CDT 8:24 PM CDT
Civil Twilight 6:02 AM CDT 8:57 PM CDT
Nautical Twilight 5:23 AM CDT 9:36 PM CDT
Astronomical Twilight 4:39 AM CDT 10:20 PM CDT
Moon 12:18 AM CDT 9:46 AM CDT
Length of Visible Light 14h 54m
Length of Day
13h 49m
Tomorrow will be 3m 10s longer.
Waning Gibbous, 77% of the Moon is Illuminated
Today
Waning Gibbous
Apr 22
Last Quarter
Apr 29
New
May 6
First Quarter
May 14
Full

Today's Extremes

State Highs State Lows

Community

  • Piriapolis
    Piriapolis
  • A Glorious Morning
    A Glorious Morning
  • Tender Rays Of Hope
    Tender Rays Of Hope
  • Bleeding Hearts
    Bleeding Hearts
  • Sunset Silhouettes
    Sunset Silhouettes

WunderPhotos

Upload Photos

1,702,878 photos uploaded!

WunderBlogs® & News

Nearby

Snow Depth

Station Depth Elevation
No new snow has been reported.

Coastal Water Temperatures

Place Temperature
No Stations Reporting

Earthquake Activity

City Distance Mag. Time & Date
No recent earthquake activity has been reported nearby.
Minimum magnitude displayed is 2.5.

Nearby Weather Stations

Station Location Temp. Dew Point Humidity Wind Precip. Elev Updated Type
NDDOT Buffalo ND 38 MP 10, Ayr, ND 63 °F 29 °F 28% WSW  at  26 mph 0.00 in / hr 1437 ft 2:10 PM CDT MADIS
Valley City State University, Valley City, ND 63.1 °F - 33% West  at  13.0 mph 0.00 in / hr 1220 ft 2:51 PM CDT Normal

Show More Stations Show Fewer Stations

What do you think?

We're not finished. Please let us know what you like, what you don't like, and what you are still missing.